Time;durP1;ratioP1;P1;durP2;ratioP2;P2;SDS_P1;SDS_P2;PMS_P1;PMS_P2;Temp;Humidity;BMP_temperature;BMP_pressure;BME280_temperature;BME280_humidity;BME280_pressure;Samples;Min_cycle;Max_cycle;Signal;HPM_P1;HPM_P2
2020/12/23 00:02:11;;;;;;;;;;;;;;;20.17;38.11;101605.59;5099696;28;843;-47
2020/12/23 00:04:36;;;;;;;;;;;;;;;19.86;38.55;101612.22;5099470;28;1973;-45
2020/12/23 00:07:05;;;;;;;;;;;;;;;19.61;39.40;101619.34;5099016;28;926;-46
2020/12/23 00:09:30;;;;;;;;;;;;;;;20.66;36.84;101620.69;5099279;28;778;-49
2020/12/23 00:11:56;;;;;;;;;;;;;;;20.43;37.32;101622.13;5099083;28;858;-46
2020/12/23 00:14:21;;;;;;;;;;;;;;;20.36;37.59;101618.81;5099497;28;844;-44
2020/12/23 00:16:47;;;;;;;;;;;;;;;19.84;38.58;101615.25;5099120;28;756;-47
2020/12/23 00:19:12;;;;;;;;;;;;;;;19.51;39.44;101614.63;5098874;28;1020;-46
2020/12/23 00:21:38;;;;;;;;;;;;;;;20.42;37.41;101617.69;5098694;28;945;-45
2020/12/23 00:24:03;;;;;;;;;;;;;;;20.33;37.54;101611.09;5099217;28;1910;-45
2020/12/23 00:26:29;;;;;;;;;;;;;;;20.11;38.28;101611.38;5099095;28;827;-44
2020/12/23 00:28:54;;;;;;;;;;;;;;;19.83;38.45;101608.91;5099009;28;874;-46
2020/12/23 00:31:19;;;;;;;;;;;;;;;19.34;39.67;101601.09;5098781;28;827;-47
2020/12/23 00:33:45;;;;;;;;;;;;;;;20.40;37.43;101597.81;5098672;28;866;-46
2020/12/23 00:36:11;;;;;;;;;;;;;;;20.38;37.31;101597.25;5098622;28;945;-46
2020/12/23 00:38:37;;;;;;;;;;;;;;;20.19;37.85;101594.25;5098599;28;763;-45
2020/12/23 00:41:02;;;;;;;;;;;;;;;19.94;38.41;101587.66;5098632;28;752;-44
2020/12/23 00:43:27;;;;;;;;;;;;;;;19.59;38.92;101585.69;5098374;28;1978;-44
2020/12/23 00:45:53;;;;;;;;;;;;;;;20.42;37.69;101586.47;5096877;28;1322;-45
2020/12/23 00:48:18;;;;;;;;;;;;;;;20.47;37.43;101581.78;5097326;28;1322;-47
2020/12/23 00:50:44;;;;;;;;;;;;;;;20.10;38.19;101585.69;5096887;28;1358;-44
2020/12/23 00:53:09;;;;;;;;;;;;;;;19.90;38.54;101580.22;5097066;28;1322;-44
2020/12/23 00:55:35;;;;;;;;;;;;;;;19.29;39.69;101582.59;5096218;28;1324;-44
2020/12/23 00:58:00;;;;;;;;;;;;;;;19.89;38.74;101584.06;5097241;28;1276;-45
2020/12/23 01:00:25;;;;;;;;;;;;;;;20.63;37.18;101579.78;5097109;28;1315;-45
2020/12/23 01:02:51;;;;;;;;;;;;;;;20.10;38.16;101579.34;5096973;28;1937;-45
2020/12/23 01:05:16;;;;;;;;;;;;;;;19.97;38.47;101578.00;5096866;28;1275;-44
2020/12/23 01:07:42;;;;;;;;;;;;;;;19.44;39.67;101576.28;5096725;28;1334;-45
2020/12/23 01:10:07;;;;;;;;;;;;;;;19.37;39.63;101556.41;5096918;28;1363;-45
2020/12/23 01:12:33;;;;;;;;;;;;;;;20.32;37.56;101559.72;5096908;28;1275;-43
2020/12/23 01:14:58;;;;;;;;;;;;;;;20.50;37.32;101556.34;5096779;28;1283;-45
2020/12/23 01:17:23;;;;;;;;;;;;;;;20.16;37.97;101551.47;5096768;28;1276;-46
2020/12/23 01:19:49;;;;;;;;;;;;;;;19.93;38.21;101552.06;5096653;28;1282;-44
2020/12/23 01:22:14;;;;;;;;;;;;;;;19.58;39.31;101550.91;5097224;28;1170;-46
2020/12/23 01:24:40;;;;;;;;;;;;;;;20.11;38.21;101553.41;5097802;28;1914;-46
2020/12/23 01:27:05;;;;;;;;;;;;;;;20.66;37.02;101561.81;5097913;28;803;-47
2020/12/23 01:29:30;;;;;;;;;;;;;;;20.09;37.97;101550.94;5097685;28;819;-45
2020/12/23 01:31:56;;;;;;;;;;;;;;;19.86;38.41;101551.50;5097767;28;874;-49
2020/12/23 01:34:21;;;;;;;;;;;;;;;19.57;39.27;101546.50;5097703;28;759;-46
2020/12/23 01:36:47;;;;;;;;;;;;;;;19.40;39.71;101547.59;5096920;28;958;-48
2020/12/23 01:39:13;;;;;;;;;;;;;;;20.02;38.51;101542.13;5097632;28;751;-46
2020/12/23 01:41:38;;;;;;;;;;;;;;;20.77;36.64;101543.28;5097470;28;815;-49
2020/12/23 01:44:03;;;;;;;;;;;;;;;20.33;37.60;101544.81;5103372;28;1981;-47
2020/12/23 01:46:30;;;;;;;;;;;;;;;20.18;37.77;101535.44;5117869;28;795;-47
2020/12/23 01:48:56;;;;;;;;;;;;;;;19.50;39.48;101532.97;5116524;28;827;-47
2020/12/23 01:51:22;;;;;;;;;;;;;;;19.61;39.43;101542.09;5104188;28;1008;-46
2020/12/23 01:53:48;;;;;;;;;;;;;;;20.54;37.06;101539.19;5097383;28;780;-46
2020/12/23 01:56:13;;;;;;;;;;;;;;;20.37;37.29;101540.38;5096041;28;783;-46
2020/12/23 01:58:38;;;;;;;;;;;;;;;20.11;38.13;101532.13;5095058;28;764;-48
2020/12/23 02:01:04;;;;;;;;;;;;;;;19.78;38.85;101525.25;5097548;28;779;-46
2020/12/23 02:03:29;;;;;;;;;;;;;;;19.74;38.99;101530.50;5096362;28;1913;-47
2020/12/23 02:05:55;;;;;;;;;;;;;;;20.65;36.91;101535.28;5096712;28;976;-49
2020/12/23 02:08:21;;;;;;;;;;;;;;;20.27;37.55;101540.38;5097585;28;772;-46
2020/12/23 02:10:47;;;;;;;;;;;;;;;20.22;37.72;101554.22;5095468;28;903;-49
2020/12/23 02:13:13;;;;;;;;;;;;;;;19.98;38.28;101565.84;5095634;28;750;-46
2020/12/23 02:15:38;;;;;;;;;;;;;;;19.88;38.77;101555.66;5097027;28;751;-46
2020/12/23 02:18:04;;;;;;;;;;;;;;;20.67;37.00;101544.97;5096759;28;739;-47
2020/12/23 02:20:29;;;;;;;;;;;;;;;20.28;37.49;101531.00;5096193;28;1031;-47
2020/12/23 02:22:54;;;;;;;;;;;;;;;20.05;38.06;101522.22;5096856;28;1917;-48
2020/12/23 02:25:20;;;;;;;;;;;;;;;19.80;38.71;101532.19;5096659;28;767;-45
2020/12/23 02:27:45;;;;;;;;;;;;;;;19.80;38.95;101523.91;5096823;28;768;-46
2020/12/23 02:30:11;;;;;;;;;;;;;;;20.65;37.02;101527.84;5096742;28;758;-47
2020/12/23 02:32:36;;;;;;;;;;;;;;;20.35;37.52;101537.88;5096619;28;775;-46
2020/12/23 02:35:02;;;;;;;;;;;;;;;20.05;38.26;101541.53;5096693;28;1032;-46
2020/12/23 02:37:28;;;;;;;;;;;;;;;19.65;39.04;101540.44;5096620;28;756;-49
2020/12/23 02:39:54;;;;;;;;;;;;;;;19.27;40.08;101524.13;5096430;28;752;-47
2020/12/23 02:42:20;;;;;;;;;;;;;;;20.37;37.69;101507.22;5096743;28;751;-45
2020/12/23 02:44:47;;;;;;;;;;;;;;;20.57;36.89;101506.31;5108294;28;1902;-45
2020/12/23 02:47:13;;;;;;;;;;;;;;;20.18;37.99;101526.31;5117095;28;866;-48
2020/12/23 02:49:38;;;;;;;;;;;;;;;20.10;38.14;101521.38;5116959;28;756;-45
2020/12/23 02:52:04;;;;;;;;;;;;;;;19.40;39.58;101532.97;5097052;28;996;-46
2020/12/23 02:54:30;;;;;;;;;;;;;;;19.94;38.53;101535.22;5096397;28;847;-47
2020/12/23 02:56:55;;;;;;;;;;;;;;;20.74;36.95;101539.16;5096737;28;823;-46
2020/12/23 02:59:20;;;;;;;;;;;;;;;20.40;37.27;101537.03;5096181;28;889;-47
2020/12/23 03:01:46;;;;;;;;;;;;;;;20.24;37.79;101535.44;5096427;28;823;-47
2020/12/23 03:04:11;;;;;;;;;;;;;;;19.95;38.37;101539.63;5096490;28;1906;-45
2020/12/23 03:06:37;;;;;;;;;;;;;;;19.39;39.51;101543.19;5095768;28;953;-47
2020/12/23 03:09:03;;;;;;;;;;;;;;;20.10;38.06;101547.03;5096480;28;767;-46
2020/12/23 03:11:28;;;;;;;;;;;;;;;20.88;36.60;101533.00;5100763;28;843;-47
2020/12/23 03:13:54;;;;;;;;;;;;;;;20.29;37.62;101524.38;5100088;28;874;-48
2020/12/23 03:16:19;;;;;;;;;;;;;;;20.17;37.86;101525.50;5100430;28;759;-47
2020/12/23 03:18:45;;;;;;;;;;;;;;;19.64;39.09;101511.19;5100273;28;1047;-47
2020/12/23 03:21:10;;;;;;;;;;;;;;;19.23;40.22;101511.19;5099721;28;1099;-46
2020/12/23 03:23:36;;;;;;;;;;;;;;;20.25;37.67;101510.28;5100202;28;1985;-47
2020/12/23 03:26:01;;;;;;;;;;;;;;;21.05;36.16;101507.75;5100515;28;764;-45
2020/12/23 03:28:27;;;;;;;;;;;;;;;21.11;36.06;101515.75;5099735;28;787;-46
2020/12/23 03:30:52;;;;;;;;;;;;;;;20.54;37.24;101508.81;5100163;28;847;-48
2020/12/23 03:33:17;;;;;;;;;;;;;;;20.33;37.52;101506.94;5100136;28;720;-47
2020/12/23 03:35:43;;;;;;;;;;;;;;;19.81;38.74;101506.25;5099297;28;1023;-48
2020/12/23 03:38:08;;;;;;;;;;;;;;;19.43;39.58;101494.66;5100180;28;764;-48
2020/12/23 03:40:34;;;;;;;;;;;;;;;20.40;37.45;101490.09;5099805;28;767;-46
2020/12/23 03:42:59;;;;;;;;;;;;;;;20.40;37.21;101486.47;5099548;28;1913;-48
2020/12/23 03:45:24;;;;;;;;;;;;;;;20.26;37.79;101494.53;5117318;28;1264;-48
2020/12/23 03:47:50;;;;;;;;;;;;;;;20.15;38.08;101494.56;5120144;28;759;-49
2020/12/23 03:50:15;;;;;;;;;;;;;;;19.62;38.95;101502.38;5115365;28;964;-45
2020/12/23 03:52:41;;;;;;;;;;;;;;;19.53;39.51;101512.28;5099780;28;751;-45
2020/12/23 03:55:07;;;;;;;;;;;;;;;20.37;37.42;101515.50;5099712;28;846;-46
2020/12/23 03:57:33;;;;;;;;;;;;;;;20.25;37.89;101513.06;5099422;28;748;-47
2020/12/23 03:59:58;;;;;;;;;;;;;;;20.09;38.08;101511.44;5099640;28;775;-46
2020/12/23 04:02:24;;;;;;;;;;;;;;;19.91;38.26;101499.88;5099330;28;806;-46
2020/12/23 04:04:49;;;;;;;;;;;;;;;19.39;39.40;101504.59;5099192;28;1961;-47
2020/12/23 04:07:14;;;;;;;;;;;;;;;20.28;37.82;101508.91;5079046;28;914;-47
2020/12/23 04:09:40;;;;;;;;;;;;;;;20.63;36.81;101504.34;5078789;28;812;-47
2020/12/23 04:12:05;;;;;;;;;;;;;;;20.21;37.72;101502.84;5079034;28;772;-47
2020/12/23 04:14:31;;;;;;;;;;;;;;;20.03;38.26;101513.38;5079623;28;785;-47
2020/12/23 04:16:56;;;;;;;;;;;;;;;19.51;39.63;101514.50;5078814;28;815;-45
2020/12/23 04:19:21;;;;;;;;;;;;;;;20.05;38.32;101519.47;5078654;28;1031;-46
2020/12/23 04:21:47;;;;;;;;;;;;;;;20.72;36.99;101524.81;5094530;28;981;-47
2020/12/23 04:24:12;;;;;;;;;;;;;;;20.22;37.96;101518.31;5098794;28;1972;-47
2020/12/23 04:26:38;;;;;;;;;;;;;;;20.06;38.24;101521.09;5098929;28;807;-46
2020/12/23 04:29:03;;;;;;;;;;;;;;;19.81;38.89;101522.81;5098912;28;755;-47
2020/12/23 04:31:28;;;;;;;;;;;;;;;19.45;39.53;101525.53;5098867;28;827;-45
2020/12/23 04:33:54;;;;;;;;;;;;;;;20.41;37.32;101529.56;5098725;28;862;-46
2020/12/23 04:36:19;;;;;;;;;;;;;;;20.29;37.58;101522.44;5098678;28;1012;-47
2020/12/23 04:38:45;;;;;;;;;;;;;;;20.10;38.16;101522.19;5098676;28;775;-46
2020/12/23 04:41:10;;;;;;;;;;;;;;;19.86;38.51;101523.91;5098674;28;759;-46
2020/12/23 04:43:36;;;;;;;;;;;;;;;19.43;39.66;101522.22;5100721;28;1918;-46
2020/12/23 04:46:01;;;;;;;;;;;;;;;20.31;37.61;101519.38;5119062;28;742;-47
2020/12/23 04:48:27;;;;;;;;;;;;;;;20.55;37.02;101514.03;5119195;28;771;-46
2020/12/23 04:50:53;;;;;;;;;;;;;;;20.04;38.04;101514.22;5107835;28;1022;-47
2020/12/23 04:53:18;;;;;;;;;;;;;;;20.03;38.30;101513.38;5098622;28;779;-48
2020/12/23 04:55:44;;;;;;;;;;;;;;;19.65;38.91;101518.38;5098571;28;879;-47
2020/12/23 04:58:09;;;;;;;;;;;;;;;19.73;38.96;101523.31;5096822;28;760;-46
2020/12/23 05:00:35;;;;;;;;;;;;;;;20.59;37.41;101520.66;5097265;28;740;-56
2020/12/23 05:03:00;;;;;;;;;;;;;;;20.32;37.75;101518.28;5098322;28;1973;-47
2020/12/23 05:05:25;;;;;;;;;;;;;;;20.10;38.40;101524.94;5097623;28;957;-46
2020/12/23 05:07:51;;;;;;;;;;;;;;;19.87;38.63;101525.56;5098531;28;823;-48
2020/12/23 05:10:16;;;;;;;;;;;;;;;19.75;39.07;101523.88;5098208;28;747;-46
2020/12/23 05:12:42;;;;;;;;;;;;;;;20.67;37.10;101522.03;5096893;28;736;-43
2020/12/23 05:15:07;;;;;;;;;;;;;;;20.30;37.78;101528.78;5098439;28;848;-46
2020/12/23 05:17:33;;;;;;;;;;;;;;;20.37;37.58;101534.00;5098086;28;744;-54
2020/12/23 05:19:58;;;;;;;;;;;;;;;19.97;38.68;101539.34;5096306;28;1537;-43
2020/12/23 05:22:25;;;;;;;;;;;;;;;19.81;39.09;101536.59;5097342;28;834;-46
2020/12/23 05:24:51;;;;;;;;;;;;;;;20.60;37.16;101538.91;5097159;28;1985;-58
2020/12/23 05:27:17;;;;;;;;;;;;;;;20.29;37.66;101544.53;5097467;28;819;-48
2020/12/23 05:29:46;;;;;;;;;;;;;;;20.02;38.31;101532.97;5096594;28;795;-49
2020/12/23 05:32:11;;;;;;;;;;;;;;;19.71;39.08;101539.31;5097414;28;851;-55
2020/12/23 05:34:37;;;;;;;;;;;;;;;19.65;39.25;101541.25;5096563;28;917;-46
2020/12/23 05:37:03;;;;;;;;;;;;;;;20.53;37.49;101543.91;5097304;28;985;-51
2020/12/23 05:39:31;;;;;;;;;;;;;;;20.28;37.92;101531.00;5096959;28;893;-47
2020/12/23 05:41:57;;;;;;;;;;;;;;;20.13;38.06;101518.03;5097218;28;871;-48
2020/12/23 05:44:23;;;;;;;;;;;;;;;19.94;38.37;101524.16;5106327;28;1918;-51
2020/12/23 05:46:48;;;;;;;;;;;;;;;19.56;39.33;101529.13;5117705;28;798;-49
2020/12/23 05:49:17;;;;;;;;;;;;;;;20.53;37.34;101527.31;5117539;28;871;-59
2020/12/23 05:51:43;;;;;;;;;;;;;;;20.36;37.50;101530.44;5101225;28;921;-52
2020/12/23 05:54:09;;;;;;;;;;;;;;;20.04;38.38;101539.88;5097216;28;802;-43
2020/12/23 05:56:38;;;;;;;;;;;;;;;19.98;38.29;101544.59;5097547;28;751;-50
2020/12/23 05:59:04;;;;;;;;;;;;;;;19.44;39.81;101540.41;5097513;28;775;-45
2020/12/23 06:01:32;;;;;;;;;;;;;;;20.59;37.18;101537.22;5096919;28;846;-44
2020/12/23 06:04:00;;;;;;;;;;;;;;;20.29;37.57;101543.72;5097491;28;2020;-45
2020/12/23 06:06:25;;;;;;;;;;;;;;;20.27;37.68;101546.75;5095586;28;958;-46
2020/12/23 06:08:52;;;;;;;;;;;;;;;19.87;38.47;101548.47;5096780;28;822;-51
2020/12/23 06:11:17;;;;;;;;;;;;;;;19.74;39.12;101555.34;5097187;28;756;-47
2020/12/23 06:14:06;;;;;;;;;;;;;;;20.63;37.23;101557.66;5096971;28;815;-51
2020/12/23 06:16:35;;;;;;;;;;;;;;;20.29;37.70;101563.84;5088553;28;1561;-52
2020/12/23 06:19:01;;;;;;;;;;;;;;;20.25;37.90;101553.66;5096663;28;928;-46
2020/12/23 06:21:27;;;;;;;;;;;;;;;19.74;38.59;101555.34;5096538;28;949;-45
2020/12/23 06:24:05;;;;;;;;;;;;;;;19.55;39.30;101557.00;5096976;28;1914;-56
2020/12/23 06:26:31;;;;;;;;;;;;;;;20.67;36.95;101555.19;5097232;28;817;-60
2020/12/23 06:28:57;;;;;;;;;;;;;;;20.34;37.57;101551.97;5096942;28;815;-47
2020/12/23 06:31:38;;;;;;;;;;;;;;;20.12;37.96;101566.94;5096774;28;835;-57
2020/12/23 06:34:03;;;;;;;;;;;;;;;19.78;39.27;101564.72;5095358;28;854;-51
2020/12/23 06:36:29;;;;;;;;;;;;;;;19.11;40.52;101570.16;5095151;28;973;-55
2020/12/23 06:39:13;;;;;;;;;;;;;;;18.79;41.73;101567.53;5096664;28;759;-54
2020/12/23 06:41:38;;;;;;;;;;;;;;;20.03;38.92;101574.09;5096535;28;791;-45
2020/12/23 06:44:05;;;;;;;;;;;;;;;20.44;38.01;101574.06;5101894;28;1981;-45
2020/12/23 06:46:49;;;;;;;;;;;;;;;20.00;38.81;101575.50;5116785;28;795;-47
2020/12/23 06:49:15;;;;;;;;;;;;;;;19.83;39.32;101575.78;5116963;28;915;-46
2020/12/23 06:51:40;;;;;;;;;;;;;;;19.50;40.28;101577.09;5100500;28;941;-46
2020/12/23 06:54:06;;;;;;;;;;;;;;;19.13;41.55;101578.16;5096430;28;795;-50
2020/12/23 06:56:44;;;;;;;;;;;;;;;19.49;40.49;101572.72;5096445;28;763;-47
2020/12/23 06:59:29;;;;;;;;;;;;;;;20.42;38.72;101584.53;5096341;28;795;-44
2020/12/23 07:01:55;;;;;;;;;;;;;;;20.35;38.54;101575.72;5096105;28;1403;-46
2020/12/23 07:04:20;;;;;;;;;;;;;;;20.20;38.77;101578.50;5095029;28;1969;-46
2020/12/23 07:06:46;;;;;;;;;;;;;;;20.60;37.85;101574.81;5094795;28;938;-48
2020/12/23 07:09:11;;;;;;;;;;;;;;;20.85;37.40;101576.69;5096239;28;775;-44
2020/12/23 07:11:37;;;;;;;;;;;;;;;20.38;38.02;101577.91;5094992;28;1330;-48
2020/12/23 07:14:03;;;;;;;;;;;;;;;20.44;38.19;101582.34;5094960;28;803;-46
2020/12/23 07:16:29;;;;;;;;;;;;;;;20.88;37.33;101571.72;5096145;28;799;-46
2020/12/23 07:18:55;;;;;;;;;;;;;;;20.37;38.24;101569.91;5094678;28;1650;-60
2020/12/23 07:21:23;;;;;;;;;;;;;;;20.32;38.54;101566.06;5095868;28;953;-45
2020/12/23 07:23:49;;;;;;;;;;;;;;;20.20;38.78;101567.47;5096353;28;1981;-49
2020/12/23 07:26:14;;;;;;;;;;;;;;;20.81;37.67;101569.25;5096143;28;839;-48
2020/12/23 07:28:40;;;;;;;;;;;;;;;20.71;37.67;101572.06;5096466;28;771;-48
2020/12/23 07:31:06;;;;;;;;;;;;;;;20.38;38.50;101575.16;5096031;28;835;-51
2020/12/23 07:33:32;;;;;;;;;;;;;;;20.65;38.14;101576.72;5095931;28;771;-45
2020/12/23 07:35:58;;;;;;;;;;;;;;;21.28;36.95;101575.34;5095649;28;980;-47
2020/12/23 07:38:24;;;;;;;;;;;;;;;20.62;38.17;101575.38;5096114;28;806;-48
2020/12/23 07:40:50;;;;;;;;;;;;;;;20.46;38.57;101576.53;5095840;28;779;-47
2020/12/23 07:43:15;;;;;;;;;;;;;;;20.07;39.54;101574.41;5096031;28;1910;-48
2020/12/23 07:45:41;;;;;;;;;;;;;;;19.26;41.08;101577.63;5115475;28;1236;-46
2020/12/23 07:48:07;;;;;;;;;;;;;;;19.89;39.83;101573.84;5116137;28;822;-48
2020/12/23 07:50:33;;;;;;;;;;;;;;;20.68;38.38;101584.50;5109499;28;948;-47
2020/12/23 07:53:10;;;;;;;;;;;;;;;20.66;38.33;101575.63;5095748;28;811;-49
2020/12/23 07:55:36;;;;;;;;;;;;;;;20.10;39.54;101569.13;5095847;28;779;-52
2020/12/23 07:58:01;;;;;;;;;;;;;;;19.89;39.98;101564.75;5099049;28;787;-46
2020/12/23 08:00:26;;;;;;;;;;;;;;;19.81;40.17;101578.00;5099304;28;863;-44
2020/12/23 08:02:53;;;;;;;;;;;;;;;20.54;38.87;101575.09;5099223;28;1977;-45
2020/12/23 08:05:18;;;;;;;;;;;;;;;20.91;37.83;101585.78;5099258;28;977;-45
2020/12/23 08:07:44;;;;;;;;;;;;;;;21.10;37.83;101579.63;5099193;28;854;-49
2020/12/23 08:10:10;;;;;;;;;;;;;;;20.52;38.53;101587.28;5099283;28;759;-49
2020/12/23 08:12:36;;;;;;;;;;;;;;;20.18;39.63;101590.66;5099170;28;775;-46
2020/12/23 08:15:07;;;;;;;;;;;;;;;19.63;40.75;101586.81;5099153;28;810;-49
2020/12/23 08:17:32;;;;;;;;;;;;;;;20.24;39.82;101574.09;5099069;28;787;-47
2020/12/23 08:20:02;;;;;;;;;;;;;;;20.76;38.64;101572.88;5098503;28;1031;-46
2020/12/23 08:22:27;;;;;;;;;;;;;;;20.97;38.17;101572.75;5099004;28;782;-46
2020/12/23 08:25:09;;;;;;;;;;;;;;;20.96;38.17;101571.13;5098889;28;1971;-46
2020/12/23 08:27:34;;;;;;;;;;;;;;;20.08;40.14;101568.59;5097593;28;874;-47
2020/12/23 08:30:00;;;;;;;;;;;;;;;19.84;40.55;101560.06;5098917;28;780;-44
2020/12/23 08:32:28;;;;;;;;;;;;;;;19.80;40.97;101565.28;5097523;28;875;-47
2020/12/23 08:34:53;;;;;;;;;;;;;;;20.46;39.54;101568.25;5098328;28;965;-46
2020/12/23 08:37:22;;;;;;;;;;;;;;;20.78;39.02;101567.88;5097513;28;835;-44
2020/12/23 08:39:54;;;;;;;;;;;;;;;21.01;38.51;101552.56;5098627;28;802;-47
2020/12/23 08:42:20;;;;;;;;;;;;;;;20.21;39.95;101556.13;5098556;28;783;-46
2020/12/23 08:44:46;;;;;;;;;;;;;;;20.13;40.15;101552.03;5110620;28;1914;-59
2020/12/23 08:47:12;;;;;;;;;;;;;;;19.53;41.57;101548.16;5117693;28;744;-48
2020/12/23 08:49:43;;;;;;;;;;;;;;;20.21;39.86;101552.56;5117477;28;1348;-48
2020/12/23 08:52:17;;;;;;;;;;;;;;;21.00;38.37;101553.69;5098574;28;960;-46
2020/12/23 08:54:43;;;;;;;;;;;;;;;20.38;39.26;101555.81;5098386;28;787;-51
2020/12/23 08:57:08;;;;;;;;;;;;;;;20.37;39.16;101551.44;5098523;28;763;-57
2020/12/23 08:59:40;;;;;;;;;;;;;;;19.72;40.53;101540.97;5097261;28;783;-48
2020/12/23 09:02:12;;;;;;;;;;;;;;;19.40;41.54;101542.06;5098059;28;751;-47
2020/12/23 09:04:38;;;;;;;;;;;;;;;19.34;41.77;101534.91;5098063;28;1991;-46
2020/12/23 09:07:03;;;;;;;;;;;;;;;20.27;39.76;101523.81;5097822;28;997;-46
2020/12/23 09:09:28;;;;;;;;;;;;;;;21.03;37.77;101527.41;5097799;28;796;-46
2020/12/23 09:11:54;;;;;;;;;;;;;;;20.48;38.79;101525.41;5098352;28;799;-51
2020/12/23 09:14:20;;;;;;;;;;;;;;;20.32;39.27;101526.56;5098446;28;831;-47
2020/12/23 09:17:01;;;;;;;;;;;;;;;19.92;39.75;101529.16;5097711;28;536;-45
2020/12/23 09:19:45;;;;;;;;;;;;;;;19.72;39.92;101527.19;5096241;28;1266;-46
2020/12/23 09:22:11;;;;;;;;;;;;;;;19.58;40.12;101520.56;5097593;28;808;-49
2020/12/23 09:24:37;;;;;;;;;;;;;;;19.66;39.80;101515.31;5097354;28;1914;-48
2020/12/23 09:27:16;;;;;;;;;;;;;;;19.67;39.88;101510.66;5097581;28;854;-46
2020/12/23 09:29:42;;;;;;;;;;;;;;;19.74;39.93;101511.19;5097553;28;799;-48
2020/12/23 09:32:08;;;;;;;;;;;;;;;19.28;40.83;101508.44;5097608;28;842;-47
2020/12/23 09:34:33;;;;;;;;;;;;;;;19.04;41.32;101497.91;5098199;28;769;-47
2020/12/23 09:36:58;;;;;;;;;;;;;;;19.00;41.37;101488.53;5097039;28;930;-46
2020/12/23 09:39:24;;;;;;;;;;;;;;;19.42;40.50;101481.97;5097811;28;743;-45
2020/12/23 09:41:59;;;;;;;;;;;;;;;19.61;39.93;101475.88;5098068;28;714;-48
2020/12/23 09:44:24;;;;;;;;;;;;;;;19.83;39.47;101475.59;5106101;28;1913;-46
2020/12/23 09:46:50;;;;;;;;;;;;;;;19.77;39.39;101477.53;5118105;28;804;-46
2020/12/23 09:49:15;;;;;;;;;;;;;;;19.59;40.12;101489.13;5118032;28;771;-47
2020/12/23 09:51:44;;;;;;;;;;;;;;;20.54;38.01;101481.16;5100395;28;830;-46
2020/12/23 09:54:10;;;;;;;;;;;;;;;21.18;36.75;101469.22;5096977;28;886;-49
2020/12/23 09:56:35;;;;;;;;;;;;;;;21.01;37.02;101466.00;5097500;28;771;-46
2020/12/23 09:59:01;;;;;;;;;;;;;;;20.46;38.16;101471.56;5097126;28;787;-44
2020/12/23 10:01:26;;;;;;;;;;;;;;;20.06;39.34;101471.41;5097489;28;819;-47
2020/12/23 10:03:51;;;;;;;;;;;;;;;19.63;39.89;101468.16;5096893;28;1914;-45
2020/12/23 10:06:17;;;;;;;;;;;;;;;20.08;39.12;101457.34;5096812;28;1012;-45
2020/12/23 10:08:42;;;;;;;;;;;;;;;20.94;37.22;101448.91;5096887;28;767;-44
2020/12/23 10:11:08;;;;;;;;;;;;;;;20.21;38.52;101453.16;5096918;28;865;-47
2020/12/23 10:13:33;;;;;;;;;;;;;;;20.10;39.00;101455.94;5097214;28;819;-49
2020/12/23 10:15:58;;;;;;;;;;;;;;;19.44;40.33;101452.16;5095598;28;1443;-46
2020/12/23 10:18:24;;;;;;;;;;;;;;;19.39;40.71;101441.16;5096697;28;772;-57
2020/12/23 10:20:49;;;;;;;;;;;;;;;20.45;38.28;101440.31;5095885;28;1028;-59
2020/12/23 10:23:15;;;;;;;;;;;;;;;21.13;36.79;101436.06;5096560;28;1902;-46
2020/12/23 10:25:41;;;;;;;;;;;;;;;21.43;36.07;101439.69;5096597;28;795;-45
2020/12/23 10:28:06;;;;;;;;;;;;;;;20.51;37.99;101444.72;5096731;28;843;-46
2020/12/23 10:30:32;;;;;;;;;;;;;;;20.40;38.18;101443.13;5096919;28;740;-50
2020/12/23 10:32:57;;;;;;;;;;;;;;;19.82;39.46;101441.69;5096409;28;748;-45
2020/12/23 10:35:23;;;;;;;;;;;;;;;19.52;40.32;101433.38;5096317;28;965;-52
2020/12/23 10:37:48;;;;;;;;;;;;;;;20.44;38.26;101449.75;5096498;28;799;-57
2020/12/23 10:40:14;;;;;;;;;;;;;;;20.91;37.15;101444.78;5096453;28;795;-55
2020/12/23 10:42:39;;;;;;;;;;;;;;;20.51;38.03;101443.91;5096950;28;752;-49
2020/12/23 10:45:06;;;;;;;;;;;;;;;20.50;37.82;101442.25;5110984;28;1973;-56
2020/12/23 10:47:32;;;;;;;;;;;;;;;19.75;39.66;101437.50;5116929;28;823;-55
2020/12/23 10:49:57;;;;;;;;;;;;;;;19.41;40.16;101436.16;5115291;28;1020;-48
2020/12/23 10:52:23;;;;;;;;;;;;;;;20.24;38.56;101436.00;5096362;28;767;-48
2020/12/23 10:54:48;;;;;;;;;;;;;;;20.74;37.54;101430.53;5096248;28;811;-47
2020/12/23 10:57:14;;;;;;;;;;;;;;;20.32;38.55;101421.63;5096462;28;763;-43
2020/12/23 10:59:39;;;;;;;;;;;;;;;20.24;38.87;101422.19;5096368;28;764;-48
2020/12/23 11:02:04;;;;;;;;;;;;;;;19.76;39.65;101415.16;5096138;28;850;-47
2020/12/23 11:04:30;;;;;;;;;;;;;;;19.45;40.42;101406.94;5096351;28;1968;-46
2020/12/23 11:06:55;;;;;;;;;;;;;;;20.67;37.89;101395.75;5095888;28;950;-53
2020/12/23 11:09:22;;;;;;;;;;;;;;;20.47;38.05;101396.69;5096242;28;747;-54
2020/12/23 11:11:50;;;;;;;;;;;;;;;20.25;38.69;101399.81;5096534;28;1460;-47
2020/12/23 11:14:15;;;;;;;;;;;;;;;20.01;39.00;101396.91;5096111;28;771;-47
2020/12/23 11:16:41;;;;;;;;;;;;;;;19.41;40.35;101399.50;5094029;28;831;-45
2020/12/23 11:19:06;;;;;;;;;;;;;;;19.86;39.61;101388.66;5095369;28;956;-44
2020/12/23 11:21:32;;;;;;;;;;;;;;;20.81;37.83;101390.41;5095509;28;914;-47
2020/12/23 11:23:58;;;;;;;;;;;;;;;20.34;38.25;101402.81;5095911;28;1914;-50
2020/12/23 11:26:23;;;;;;;;;;;;;;;20.29;38.72;101405.63;5096231;28;823;-48
2020/12/23 11:28:49;;;;;;;;;;;;;;;19.82;39.47;101397.53;5096008;28;861;-48
2020/12/23 11:31:15;;;;;;;;;;;;;;;19.37;40.65;101395.66;5097978;28;522;-48
2020/12/23 11:33:41;;;;;;;;;;;;;;;20.50;38.03;101387.81;5099624;28;843;-48
2020/12/23 11:36:06;;;;;;;;;;;;;;;20.68;37.45;101391.06;5098617;28;977;-47
2020/12/23 11:38:31;;;;;;;;;;;;;;;20.15;38.46;101373.09;5099780;28;755;-50
2020/12/23 11:40:57;;;;;;;;;;;;;;;20.12;38.59;101373.66;5099865;28;748;-50
2020/12/23 11:43:28;;;;;;;;;;;;;;;19.57;40.05;101375.47;5099834;28;1917;-45
2020/12/23 11:45:54;;;;;;;;;;;;;;;19.37;40.50;101376.34;5120092;28;1038;-43
2020/12/23 11:48:19;;;;;;;;;;;;;;;20.54;37.99;101367.91;5120395;28;838;-53
2020/12/23 11:50:44;;;;;;;;;;;;;;;20.71;37.35;101378.63;5111319;28;937;-57
2020/12/23 11:53:10;;;;;;;;;;;;;;;20.47;37.73;101374.56;5099405;28;803;-45
2020/12/23 11:55:36;;;;;;;;;;;;;;;20.06;38.62;101385.00;5099562;28;842;-46
2020/12/23 11:58:01;;;;;;;;;;;;;;;19.61;39.83;101379.31;5099318;28;878;-52
2020/12/23 12:00:26;;;;;;;;;;;;;;;20.01;38.80;101372.06;5099499;28;791;-50
2020/12/23 12:02:52;;;;;;;;;;;;;;;20.78;37.42;101384.63;5099629;28;1918;-52
2020/12/23 12:05:17;;;;;;;;;;;;;;;20.40;37.87;101384.28;5098781;28;914;-47
2020/12/23 12:07:43;;;;;;;;;;;;;;;20.27;38.24;101382.97;5099039;28;807;-52
2020/12/23 12:10:08;;;;;;;;;;;;;;;19.82;39.03;101391.16;5099473;28;843;-46
2020/12/23 12:12:34;;;;;;;;;;;;;;;19.55;39.76;101389.53;5099035;28;763;-45
2020/12/23 12:14:59;;;;;;;;;;;;;;;19.50;39.98;101386.78;5099291;28;772;-55
2020/12/23 12:17:25;;;;;;;;;;;;;;;19.67;39.58;101386.50;5099362;28;827;-54
2020/12/23 12:19:50;;;;;;;;;;;;;;;19.78;39.35;101390.88;5098377;28;1180;-51
2020/12/23 12:22:16;;;;;;;;;;;;;;;20.03;38.64;101386.38;5098886;28;855;-58
2020/12/23 12:24:41;;;;;;;;;;;;;;;20.15;38.29;101378.59;5099099;28;1914;-48
2020/12/23 12:27:06;;;;;;;;;;;;;;;20.01;38.87;101372.06;5098969;28;799;-46
2020/12/23 12:29:32;;;;;;;;;;;;;;;20.18;38.18;101382.75;5099085;28;806;-53
2020/12/23 12:31:57;;;;;;;;;;;;;;;20.07;38.55;101383.91;5098839;28;535;-46
2020/12/23 12:34:23;;;;;;;;;;;;;;;20.05;38.42;101384.19;5098722;28;724;-55
2020/12/23 12:36:50;;;;;;;;;;;;;;;20.05;38.48;101384.19;5098220;28;933;-49
2020/12/23 12:39:15;;;;;;;;;;;;;;;20.06;38.63;101391.34;5098469;28;838;-48
2020/12/23 12:41:41;;;;;;;;;;;;;;;20.00;38.64;101386.97;5098416;28;783;-45
2020/12/23 12:44:06;;;;;;;;;;;;;;;19.70;39.21;101399.72;5104810;28;1910;-53
2020/12/23 12:46:31;;;;;;;;;;;;;;;19.67;39.43;101397.53;5119321;28;739;-58
2020/12/23 12:48:57;;;;;;;;;;;;;;;20.77;36.93;101396.81;5118870;28;740;-48
2020/12/23 12:51:26;;;;;;;;;;;;;;;20.52;37.56;101393.06;5103852;28;1176;-53